Time;durP1;ratioP1;P1;durP2;ratioP2;P2;SDS_P1;SDS_P2;PMS_P1;PMS_P2;Temp;Humidity;BMP_temperature;BMP_pressure;BME280_temperature;BME280_humidity;BME280_pressure;Samples;Min_cycle;Max_cycle;Signal;HPM_P1;HPM_P2
2024/01/22 00:01:34;;;;;;;1.50;1.40;;;12.80;58.60;;;;;;4995780;28;20176;-73
2024/01/22 00:04:00;;;;;;;1.30;1.13;;;12.80;58.70;;;;;;5013150;28;20170;-73
2024/01/22 00:06:26;;;;;;;2.07;1.47;;;12.80;58.60;;;;;;4996568;28;20271;-73
2024/01/22 00:08:51;;;;;;;2.73;1.50;;;12.80;58.80;;;;;;4995735;28;20294;-73
2024/01/22 00:11:17;;;;;;;1.80;1.37;;;12.80;58.80;;;;;;4995379;28;20182;-73
2024/01/22 00:13:43;;;;;;;1.63;1.27;;;12.80;59.00;;;;;;4996717;28;20176;-73
2024/01/22 00:16:09;;;;;;;1.70;1.40;;;12.80;59.00;;;;;;4996453;28;20215;-73
2024/01/22 00:18:36;;;;;;;1.57;1.37;;;12.80;59.10;;;;;;4996399;28;20181;-73
2024/01/22 00:21:02;;;;;;;1.60;1.50;;;12.80;59.20;;;;;;5013752;28;20201;-73
2024/01/22 00:23:27;;;;;;;1.77;1.30;;;12.80;59.20;;;;;;4995799;28;20208;-73
2024/01/22 00:25:53;;;;;;;2.67;1.37;;;12.80;59.30;;;;;;4996451;28;20181;-73
2024/01/22 00:28:19;;;;;;;1.43;1.30;;;12.80;59.40;;;;;;4996311;28;20213;-73
2024/01/22 00:30:45;;;;;;;1.50;1.40;;;12.80;59.30;;;;;;5014159;28;20244;-74
2024/01/22 00:33:10;;;;;;;1.73;1.27;;;12.80;59.30;;;;;;4996240;28;20183;-72
2024/01/22 00:35:36;;;;;;;1.70;1.20;;;12.80;59.40;;;;;;4996794;28;20278;-72
2024/01/22 00:38:02;;;;;;;2.07;1.43;;;12.80;59.50;;;;;;4996339;28;20171;-72
2024/01/22 00:40:28;;;;;;;2.13;1.30;;;12.80;59.50;;;;;;4996923;28;20189;-74
2024/01/22 00:42:53;;;;;;;1.33;1.20;;;12.80;59.50;;;;;;4996043;28;20559;-73
2024/01/22 00:45:19;;;;;;;1.60;1.20;;;12.80;59.80;;;;;;5012695;28;20547;-73
2024/01/22 00:47:45;;;;;;;2.17;1.40;;;12.80;59.70;;;;;;4993883;28;20478;-73
2024/01/22 00:50:11;;;;;;;1.87;1.40;;;12.80;59.80;;;;;;4994190;28;20449;-73
2024/01/22 00:52:37;;;;;;;1.50;1.40;;;12.80;59.80;;;;;;4994527;28;20302;-73
2024/01/22 00:55:03;;;;;;;1.67;1.40;;;12.80;59.80;;;;;;5011904;28;20275;-74
2024/01/22 00:57:29;;;;;;;2.40;1.40;;;12.80;59.90;;;;;;4994063;28;20180;-74
2024/01/22 00:59:55;;;;;;;1.30;1.20;;;12.80;60.00;;;;;;4995113;28;20178;-74
2024/01/22 01:02:21;;;;;;;1.77;1.20;;;12.80;60.10;;;;;;5011721;28;20177;-74
2024/01/22 01:04:46;;;;;;;1.30;1.20;;;12.80;60.30;;;;;;4995877;28;20247;-71
2024/01/22 01:07:14;;;;;;;1.80;1.30;;;12.80;60.40;;;;;;4995454;28;20502;-71
2024/01/22 01:09:47;;;;;;;1.50;1.10;;;12.80;60.50;;;;;;4996468;28;20207;-71
2024/01/22 01:12:13;;;;;;;1.30;1.00;;;12.80;60.70;;;;;;4998784;28;20184;-72
2024/01/22 01:14:38;;;;;;;1.67;1.53;;;12.80;60.70;;;;;;4998041;28;20173;-72
2024/01/22 01:17:04;;;;;;;1.30;1.10;;;12.70;60.90;;;;;;4994439;28;20182;-71
2024/01/22 01:19:30;;;;;;;1.63;1.20;;;12.80;61.10;;;;;;4994857;28;20170;-71
2024/01/22 01:21:55;;;;;;;1.70;1.13;;;12.80;61.20;;;;;;4994751;28;20563;-71
2024/01/22 01:24:26;;;;;;;1.20;1.10;;;12.80;61.40;;;;;;4985343;28;20250;-72
2024/01/22 01:26:52;;;;;;;2.00;1.20;;;12.80;61.50;;;;;;5011621;28;20468;-72
2024/01/22 01:29:17;;;;;;;1.20;1.10;;;12.80;61.50;;;;;;4991112;28;20216;-72
2024/01/22 01:31:43;;;;;;;2.07;1.10;;;12.80;61.70;;;;;;4994139;28;20186;-72
2024/01/22 01:34:09;;;;;;;1.97;1.30;;;12.80;61.80;;;;;;4995337;28;20272;-71
2024/01/22 01:36:35;;;;;;;1.27;1.17;;;12.80;62.10;;;;;;4993542;28;20174;-71
2024/01/22 01:39:00;;;;;;;1.80;1.47;;;12.80;61.80;;;;;;4993068;28;20270;-72
2024/01/22 01:41:26;;;;;;;1.83;1.20;;;12.80;62.00;;;;;;4993333;28;20171;-71
2024/01/22 01:43:52;;;;;;;1.20;1.10;;;12.80;61.90;;;;;;4994204;28;20174;-72
2024/01/22 01:46:18;;;;;;;1.53;1.27;;;12.80;62.30;;;;;;5010608;28;20170;-71
2024/01/22 01:48:43;;;;;;;1.43;1.00;;;12.80;62.20;;;;;;4994208;28;20181;-71
2024/01/22 01:51:10;;;;;;;1.20;1.00;;;12.80;62.30;;;;;;4993716;28;20220;-74
2024/01/22 01:53:36;;;;;;;1.87;1.10;;;12.80;62.40;;;;;;4994094;28;20543;-75
2024/01/22 01:56:03;;;;;;;1.60;1.20;;;12.80;62.80;;;;;;5011461;28;20172;-74
2024/01/22 01:58:28;;;;;;;1.10;1.00;;;12.80;62.80;;;;;;4995409;28;20453;-74
2024/01/22 02:00:57;;;;;;;1.30;1.10;;;12.80;63.20;;;;;;4994280;28;20547;-74
2024/01/22 02:03:24;;;;;;;2.97;1.17;;;12.80;63.30;;;;;;4995150;28;20176;-73
2024/01/22 02:05:49;;;;;;;1.20;1.00;;;12.80;63.00;;;;;;4993620;28;20191;-74
2024/01/22 02:08:15;;;;;;;1.13;1.00;;;12.80;63.20;;;;;;4993291;28;20181;-74
2024/01/22 02:10:45;;;;;;;2.93;1.10;;;12.80;63.20;;;;;;4991271;28;20201;-74
2024/01/22 02:13:11;;;;;;;1.10;1.00;;;12.80;63.30;;;;;;5009408;28;20173;-73
2024/01/22 02:15:37;;;;;;;1.37;1.20;;;12.80;63.40;;;;;;4992566;28;20234;-74
2024/01/22 02:18:03;;;;;;;1.53;0.93;;;12.80;63.30;;;;;;4993066;28;20178;-74
2024/01/22 02:20:30;;;;;;;1.73;1.00;;;12.80;63.60;;;;;;5010898;28;20272;-74
2024/01/22 02:23:06;;;;;;;1.50;1.10;;;12.80;63.60;;;;;;4993587;28;20174;-74
2024/01/22 02:25:33;;;;;;;1.40;1.00;;;12.90;63.90;;;;;;4992442;28;20177;-74
2024/01/22 02:27:59;;;;;;;1.00;0.90;;;12.80;64.00;;;;;;4991631;28;20650;-73
2024/01/22 02:30:25;;;;;;;1.27;0.90;;;12.80;63.90;;;;;;4992535;28;20596;-74
2024/01/22 02:32:50;;;;;;;1.00;0.90;;;12.80;64.20;;;;;;4990875;28;20178;-75
2024/01/22 02:35:17;;;;;;;1.70;1.20;;;12.80;64.10;;;;;;4991850;28;20566;-73
2024/01/22 02:37:43;;;;;;;1.80;1.10;;;12.80;64.20;;;;;;4992721;28;20223;-73
2024/01/22 02:40:10;;;;;;;1.90;0.90;;;12.80;64.20;;;;;;4992996;28;20290;-73
2024/01/22 02:42:35;;;;;;;1.17;1.00;;;12.90;64.30;;;;;;4994622;28;20274;-73
2024/01/22 02:45:02;;;;;;;1.47;1.07;;;12.80;64.30;;;;;;4994649;28;20326;-73
2024/01/22 02:47:28;;;;;;;1.30;1.00;;;12.80;64.70;;;;;;4994646;28;20175;-73
2024/01/22 02:49:54;;;;;;;2.67;1.00;;;12.80;64.90;;;;;;4995548;28;20221;-74
2024/01/22 02:52:20;;;;;;;0.80;0.70;;;12.80;64.80;;;;;;5012617;28;20455;-73
2024/01/22 02:54:45;;;;;;;2.87;0.90;;;12.80;64.90;;;;;;4995477;28;20181;-73
2024/01/22 02:57:11;;;;;;;1.10;0.90;;;12.80;64.70;;;;;;4995212;28;20210;-73
2024/01/22 02:59:40;;;;;;;1.70;0.83;;;12.90;65.00;;;;;;4994197;28;20201;-73
2024/01/22 03:02:06;;;;;;;1.30;1.00;;;12.90;64.90;;;;;;4993618;28;20182;-73
2024/01/22 03:04:32;;;;;;;0.80;0.80;;;12.90;65.00;;;;;;4993333;28;20187;-74
2024/01/22 03:06:58;;;;;;;1.10;0.90;;;12.90;65.60;;;;;;4993212;28;20332;-73
2024/01/22 03:09:24;;;;;;;1.17;1.03;;;12.90;65.20;;;;;;4993590;28;20205;-73
2024/01/22 03:11:50;;;;;;;1.00;0.90;;;12.90;65.30;;;;;;4994646;28;20170;-74
2024/01/22 03:14:16;;;;;;;1.30;0.90;;;12.90;65.30;;;;;;4994185;28;20562;-73
2024/01/22 03:16:41;;;;;;;1.60;0.90;;;12.90;65.40;;;;;;4993399;28;20186;-73
2024/01/22 03:19:07;;;;;;;1.20;0.90;;;12.90;65.60;;;;;;4993447;28;20587;-73
2024/01/22 03:21:33;;;;;;;1.80;0.90;;;12.90;65.60;;;;;;5011230;28;20179;-73
2024/01/22 03:23:59;;;;;;;1.60;0.90;;;12.90;66.00;;;;;;4994278;28;20183;-74
2024/01/22 03:26:25;;;;;;;1.67;1.00;;;12.90;65.80;;;;;;5011956;28;20198;-73
2024/01/22 03:28:51;;;;;;;1.10;0.90;;;12.90;65.80;;;;;;4993527;28;20538;-73
2024/01/22 03:31:25;;;;;;;1.17;1.07;;;12.90;65.70;;;;;;4992168;28;20219;-73
2024/01/22 03:33:53;;;;;;;0.73;0.73;;;12.90;66.00;;;;;;4988444;28;20195;-72
2024/01/22 03:36:20;;;;;;;1.33;0.90;;;12.90;66.00;;;;;;4994330;28;20186;-73
2024/01/22 03:38:46;;;;;;;0.90;0.70;;;12.90;66.00;;;;;;4993209;28;20213;-73
2024/01/22 03:41:12;;;;;;;0.80;0.80;;;12.90;66.40;;;;;;4992789;28;20467;-73
2024/01/22 03:43:38;;;;;;;0.90;0.80;;;12.90;66.40;;;;;;4994689;28;20180;-74
2024/01/22 03:46:04;;;;;;;1.20;0.87;;;12.90;66.60;;;;;;4997493;28;20178;-74
2024/01/22 03:48:30;;;;;;;1.10;0.90;;;12.90;66.50;;;;;;4996524;28;20180;-74
2024/01/22 03:50:59;;;;;;;0.83;0.80;;;12.90;66.80;;;;;;4996002;28;20300;-73
2024/01/22 03:53:24;;;;;;;2.40;0.90;;;12.90;66.80;;;;;;4996646;28;20178;-74
2024/01/22 03:55:50;;;;;;;1.13;1.03;;;12.90;66.90;;;;;;5013431;28;20278;-72
2024/01/22 03:58:16;;;;;;;0.90;0.80;;;12.90;66.80;;;;;;4996290;28;20590;-73
2024/01/22 04:00:42;;;;;;;1.17;0.83;;;12.90;67.20;;;;;;4996241;28;20341;-74
2024/01/22 04:03:08;;;;;;;1.07;0.90;;;12.90;67.20;;;;;;4995015;28;20170;-74
2024/01/22 04:05:34;;;;;;;1.47;1.00;;;12.90;67.40;;;;;;4994876;28;20182;-74
2024/01/22 04:07:59;;;;;;;1.50;1.00;;;12.90;67.30;;;;;;4994726;28;20631;-73
2024/01/22 04:10:26;;;;;;;1.20;0.80;;;12.90;67.60;;;;;;4995299;28;20217;-73
2024/01/22 04:12:54;;;;;;;0.87;0.80;;;12.90;68.00;;;;;;4995051;28;20181;-73
2024/01/22 04:15:20;;;;;;;1.07;0.70;;;12.90;68.10;;;;;;4995307;28;20608;-73
2024/01/22 04:17:46;;;;;;;1.43;0.90;;;12.80;68.20;;;;;;4995840;28;20584;-73
2024/01/22 04:20:12;;;;;;;1.10;0.90;;;12.80;68.50;;;;;;4996088;28;20287;-73
2024/01/22 04:22:37;;;;;;;0.70;0.70;;;12.80;68.50;;;;;;4996609;28;20242;-73
2024/01/22 04:25:04;;;;;;;0.70;0.70;;;12.80;69.20;;;;;;4996153;28;20177;-73
2024/01/22 04:27:30;;;;;;;1.00;0.90;;;12.70;69.20;;;;;;4995501;28;20174;-73
2024/01/22 04:29:56;;;;;;;1.13;0.80;;;12.70;69.30;;;;;;4996919;28;20203;-72
2024/01/22 04:32:22;;;;;;;1.10;0.90;;;12.70;69.60;;;;;;4995564;28;20176;-73
2024/01/22 04:34:48;;;;;;;0.70;0.70;;;12.70;69.90;;;;;;4996245;28;20239;-73
2024/01/22 04:37:14;;;;;;;0.80;0.80;;;12.70;70.20;;;;;;4995402;28;20397;-73
2024/01/22 04:39:40;;;;;;;0.80;0.70;;;12.70;70.40;;;;;;4996499;28;20181;-73
2024/01/22 04:42:06;;;;;;;1.63;0.90;;;12.70;71.10;;;;;;4996131;28;20178;-74
2024/01/22 04:44:32;;;;;;;0.67;0.67;;;12.80;70.30;;;;;;4995914;28;20180;-73
2024/01/22 04:47:00;;;;;;;0.77;0.73;;;13.00;70.10;;;;;;5012236;28;20211;-74
2024/01/22 04:49:25;;;;;;;0.83;0.80;;;13.10;69.60;;;;;;4995265;28;20207;-73
2024/01/22 04:51:51;;;;;;;1.27;0.73;;;13.20;69.20;;;;;;4996579;28;20174;-73
2024/01/22 04:54:17;;;;;;;1.13;0.80;;;13.50;68.30;;;;;;4994511;28;20279;-73
2024/01/22 04:56:47;;;;;;;0.90;0.70;;;13.60;67.40;;;;;;4996311;28;20265;-74
2024/01/22 04:59:14;;;;;;;0.70;0.70;;;13.80;66.70;;;;;;4995870;28;20211;-73
2024/01/22 05:01:40;;;;;;;0.93;0.83;;;14.10;65.30;;;;;;4996891;28;20176;-74
2024/01/22 05:04:06;;;;;;;2.20;0.90;;;14.30;64.50;;;;;;4997187;28;20175;-73
2024/01/22 05:06:32;;;;;;;0.83;0.83;;;14.30;64.00;;;;;;4996050;28;20180;-72
2024/01/22 05:08:58;;;;;;;0.87;0.83;;;14.20;64.60;;;;;;4995994;28;20246;-72
2024/01/22 05:11:23;;;;;;;1.23;0.70;;;14.20;64.70;;;;;;5013293;28;20179;-73
2024/01/22 05:13:53;;;;;;;0.90;0.70;;;14.10;65.10;;;;;;4995672;28;20180;-73
2024/01/22 05:16:21;;;;;;;0.60;0.60;;;14.00;65.50;;;;;;4995389;28;20174;-73
2024/01/22 05:18:48;;;;;;;0.80;0.80;;;13.90;66.30;;;;;;4995993;28;20176;-74
2024/01/22 05:21:15;;;;;;;0.93;0.70;;;13.80;66.50;;;;;;4993752;28;20225;-72
2024/01/22 05:23:41;;;;;;;0.80;0.70;;;13.70;66.90;;;;;;4995509;28;20180;-73
2024/01/22 05:26:08;;;;;;;0.97;0.60;;;13.70;67.30;;;;;;4995598;28;20166;-73
2024/01/22 05:28:34;;;;;;;0.70;0.70;;;13.60;67.70;;;;;;4995818;28;20178;-74
2024/01/22 05:31:01;;;;;;;1.40;0.77;;;13.60;67.90;;;;;;4994727;28;20213;-72
2024/01/22 05:33:30;;;;;;;1.07;0.80;;;13.50;68.40;;;;;;4991998;28;20170;-74
2024/01/22 05:35:59;;;;;;;0.70;0.70;;;13.50;68.60;;;;;;4995894;28;20186;-75
2024/01/22 05:38:25;;;;;;;0.80;0.70;;;13.50;69.00;;;;;;4995202;28;20172;-74
2024/01/22 05:40:51;;;;;;;0.80;0.80;;;13.40;69.30;;;;;;4995429;28;20188;-74
2024/01/22 05:43:16;;;;;;;1.23;0.90;;;13.40;69.80;;;;;;4993969;28;20225;-74
2024/01/22 05:45:42;;;;;;;1.17;0.80;;;13.40;69.90;;;;;;4994746;28;20222;-74
2024/01/22 05:48:09;;;;;;;0.70;0.60;;;13.30;70.10;;;;;;5046174;28;20233;-74
2024/01/22 05:50:35;;;;;;;0.80;0.70;;;13.30;70.80;;;;;;5076085;28;20300;-74
2024/01/22 05:53:01;;;;;;;0.93;0.73;;;13.30;71.00;;;;;;5018218;28;20297;-74
2024/01/22 05:55:29;;;;;;;0.73;0.60;;;13.20;71.30;;;;;;4995109;28;20175;-74
2024/01/22 05:57:55;;;;;;;1.40;0.80;;;13.20;71.70;;;;;;4991916;28;20175;-73
2024/01/22 06:00:21;;;;;;;2.13;0.80;;;13.20;72.30;;;;;;4988480;28;20433;-74
2024/01/22 06:02:47;;;;;;;0.70;0.60;;;13.20;72.40;;;;;;4990788;28;20583;-73
2024/01/22 06:05:23;;;;;;;0.70;0.70;;;13.10;72.70;;;;;;4986821;28;20229;-73
2024/01/22 06:07:49;;;;;;;0.73;0.70;;;13.10;73.20;;;;;;4975102;28;20733;-73
2024/01/22 06:10:15;;;;;;;1.23;0.87;;;13.10;73.50;;;;;;4976040;28;20240;-74
2024/01/22 06:12:41;;;;;;;1.00;0.87;;;13.00;73.80;;;;;;4971848;28;20171;-73
2024/01/22 06:15:07;;;;;;;0.70;0.63;;;13.00;74.40;;;;;;4970062;28;20201;-73
2024/01/22 06:17:33;;;;;;;1.97;0.70;;;13.00;74.90;;;;;;4971108;28;20260;-73
2024/01/22 06:20:00;;;;;;;0.57;0.57;;;12.90;75.20;;;;;;4972153;28;20492;-73
2024/01/22 06:22:29;;;;;;;1.00;0.70;;;13.00;76.00;;;;;;4976130;28;20201;-73
2024/01/22 06:24:55;;;;;;;0.90;0.90;;;13.00;75.70;;;;;;4993360;28;20189;-73
2024/01/22 06:27:21;;;;;;;1.07;0.70;;;13.10;75.70;;;;;;5011023;28;20176;-74
2024/01/22 06:29:47;;;;;;;0.67;0.60;;;13.20;75.20;;;;;;5004804;28;20199;-74
2024/01/22 06:32:13;;;;;;;0.60;0.60;;;13.30;74.50;;;;;;5006326;28;20253;-74
2024/01/22 06:34:39;;;;;;;0.70;0.60;;;13.40;73.90;;;;;;5006010;28;20168;-74
2024/01/22 06:37:05;;;;;;;0.70;0.70;;;13.60;73.00;;;;;;5001958;28;20612;-73
2024/01/22 06:39:30;;;;;;;0.80;0.77;;;13.80;72.60;;;;;;5029216;28;20174;-73
2024/01/22 06:41:56;;;;;;;0.50;0.50;;;14.00;71.60;;;;;;5069611;28;20172;-74
2024/01/22 06:44:22;;;;;;;0.60;0.60;;;14.20;70.40;;;;;;5067991;28;20181;-73
2024/01/22 06:46:48;;;;;;;0.70;0.70;;;14.30;69.70;;;;;;5063915;28;20435;-73
2024/01/22 06:49:13;;;;;;;1.00;0.90;;;14.30;69.00;;;;;;4996559;28;20299;-73
2024/01/22 06:51:39;;;;;;;1.53;0.70;;;14.30;69.20;;;;;;5011309;28;20173;-74
2024/01/22 06:54:05;;;;;;;0.80;0.80;;;14.30;69.20;;;;;;4991868;28;20301;-74
2024/01/22 06:56:31;;;;;;;0.70;0.70;;;14.20;69.60;;;;;;4987966;28;20279;-74
2024/01/22 06:58:58;;;;;;;0.70;0.70;;;14.10;70.10;;;;;;4987008;28;20426;-74
2024/01/22 07:01:27;;;;;;;1.07;0.70;;;14.00;70.50;;;;;;4988266;28;20285;-74
2024/01/22 07:03:53;;;;;;;1.17;0.70;;;13.90;70.90;;;;;;4982115;28;20250;-74
2024/01/22 07:06:18;;;;;;;1.30;0.90;;;13.90;71.20;;;;;;4981875;28;20275;-74
2024/01/22 07:08:45;;;;;;;0.90;0.80;;;13.80;71.90;;;;;;4974231;28;20656;-75
2024/01/22 07:11:11;;;;;;;1.13;0.80;;;13.70;73.00;;;;;;4989696;28;20203;-74
2024/01/22 07:13:38;;;;;;;1.20;0.80;;;13.70;73.90;;;;;;4966610;28;20189;-74
2024/01/22 07:16:04;;;;;;;0.70;0.70;;;13.70;74.20;;;;;;4965531;28;20175;-74
2024/01/22 07:18:30;;;;;;;1.50;0.80;;;13.60;74.10;;;;;;4967490;28;20172;-74
2024/01/22 07:20:58;;;;;;;0.60;0.60;;;13.60;74.60;;;;;;4969398;28;20244;-74
2024/01/22 07:23:24;;;;;;;2.30;0.80;;;13.60;74.90;;;;;;4965811;28;20598;-75
2024/01/22 07:25:50;;;;;;;0.63;0.63;;;13.60;75.20;;;;;;4985226;28;20179;-75
2024/01/22 07:28:15;;;;;;;0.70;0.70;;;13.50;75.40;;;;;;4964354;28;20281;-74
2024/01/22 07:30:41;;;;;;;2.30;0.80;;;13.50;75.80;;;;;;4970143;28;20210;-74
2024/01/22 07:33:07;;;;;;;1.07;0.80;;;13.50;76.40;;;;;;4968338;28;20167;-74
2024/01/22 07:35:33;;;;;;;0.97;0.80;;;13.40;76.50;;;;;;4968485;28;20172;-74
2024/01/22 07:37:59;;;;;;;1.20;0.70;;;13.40;76.80;;;;;;4986807;28;20167;-76
2024/01/22 07:40:24;;;;;;;0.97;0.53;;;13.40;77.10;;;;;;4968736;28;20438;-74
2024/01/22 07:42:50;;;;;;;1.43;0.80;;;13.40;77.50;;;;;;4967692;28;20458;-74
2024/01/22 07:45:16;;;;;;;0.80;0.73;;;13.30;77.90;;;;;;4970934;28;20179;-74
2024/01/22 07:47:43;;;;;;;0.97;0.70;;;13.30;78.20;;;;;;4971109;28;20238;-73
2024/01/22 07:50:13;;;;;;;0.67;0.60;;;13.30;78.70;;;;;;4981486;28;20302;-74
2024/01/22 07:52:40;;;;;;;0.97;0.60;;;13.20;80.10;;;;;;4970871;28;20585;-73
2024/01/22 07:55:06;;;;;;;1.40;0.60;;;13.20;80.30;;;;;;4968440;28;20178;-73
2024/01/22 07:57:32;;;;;;;1.17;0.70;;;13.20;80.60;;;;;;4969491;28;20415;-73
2024/01/22 07:59:58;;;;;;;0.70;0.70;;;13.20;81.40;;;;;;4969625;28;20172;-73
2024/01/22 08:02:24;;;;;;;1.17;0.50;;;13.20;81.70;;;;;;4969086;28;20630;-73
2024/01/22 08:04:50;;;;;;;3.87;0.87;;;13.20;82.10;;;;;;4970510;28;20245;-73
2024/01/22 08:07:17;;;;;;;2.77;0.80;;;13.20;82.10;;;;;;4970333;28;20240;-73
2024/01/22 08:09:43;;;;;;;2.70;0.80;;;13.20;82.40;;;;;;4987798;28;20293;-73
2024/01/22 08:12:08;;;;;;;2.13;1.00;;;13.20;83.00;;;;;;4987387;28;20283;-73
2024/01/22 08:14:34;;;;;;;2.27;0.90;;;13.30;83.90;;;;;;4967983;28;20530;-73
2024/01/22 08:17:03;;;;;;;6.00;1.00;;;13.40;83.90;;;;;;4971685;28;20177;-73
2024/01/22 08:19:30;;;;;;;3.73;0.87;;;13.50;83.40;;;;;;4976923;28;20172;-73
2024/01/22 08:21:56;;;;;;;1.13;0.77;;;13.60;83.50;;;;;;4975237;28;20759;-73
2024/01/22 08:24:23;;;;;;;1.90;0.73;;;13.70;82.70;;;;;;4967870;28;20181;-73
2024/01/22 08:26:49;;;;;;;1.70;0.73;;;13.80;81.70;;;;;;4968017;28;20529;-73
2024/01/22 08:29:15;;;;;;;0.83;0.70;;;14.00;80.80;;;;;;4967601;28;20582;-73
2024/01/22 08:31:41;;;;;;;1.77;0.80;;;14.10;80.30;;;;;;4967503;28;20253;-73
2024/01/22 08:34:10;;;;;;;2.20;0.70;;;14.10;79.40;;;;;;4966095;28;20268;-73
2024/01/22 08:36:36;;;;;;;1.80;0.80;;;14.20;79.10;;;;;;4966582;28;20172;-73
2024/01/22 08:39:02;;;;;;;2.20;0.73;;;14.30;78.70;;;;;;4985477;28;20194;-73
2024/01/22 08:41:28;;;;;;;3.33;0.77;;;14.40;78.40;;;;;;4962741;28;20412;-73
2024/01/22 08:44:02;;;;;;;1.07;0.70;;;14.40;77.80;;;;;;4985155;28;20206;-73
2024/01/22 08:46:27;;;;;;;0.93;0.80;;;14.40;78.10;;;;;;4967369;28;20529;-73
2024/01/22 08:48:53;;;;;;;2.60;0.83;;;14.30;78.30;;;;;;4967419;28;20763;-73
2024/01/22 08:51:19;;;;;;;1.00;0.80;;;14.30;78.90;;;;;;4984935;28;20214;-73
2024/01/22 08:53:45;;;;;;;2.63;0.60;;;14.20;79.20;;;;;;4969465;28;20224;-73
2024/01/22 08:56:10;;;;;;;0.57;0.50;;;14.20;79.50;;;;;;4968302;28;20335;-73
2024/01/22 08:58:36;;;;;;;1.43;0.90;;;14.10;80.00;;;;;;4969219;28;20186;-73
2024/01/22 09:01:05;;;;;;;1.10;0.83;;;14.00;80.70;;;;;;4967963;28;20189;-73
2024/01/22 09:03:32;;;;;;;0.87;0.70;;;14.00;81.30;;;;;;4966822;28;20178;-73
2024/01/22 09:05:59;;;;;;;1.23;0.73;;;14.00;81.90;;;;;;4967659;28;20175;-73
2024/01/22 09:08:24;;;;;;;2.97;0.80;;;13.90;82.20;;;;;;4967626;28;20496;-73
2024/01/22 09:10:50;;;;;;;1.53;0.70;;;13.90;82.70;;;;;;4966129;28;20303;-73
2024/01/22 09:13:16;;;;;;;2.27;1.00;;;13.90;83.20;;;;;;4985149;28;20170;-73
2024/01/22 09:15:41;;;;;;;0.80;0.73;;;13.80;83.50;;;;;;4966236;28;20178;-74
2024/01/22 09:18:07;;;;;;;0.67;0.67;;;13.80;84.10;;;;;;4967657;28;20192;-74
2024/01/22 09:20:33;;;;;;;0.93;0.70;;;13.80;84.60;;;;;;4967967;28;20203;-74
2024/01/22 09:23:00;;;;;;;4.30;0.97;;;13.80;84.60;;;;;;4967291;28;20188;-74
2024/01/22 09:25:26;;;;;;;0.70;0.70;;;13.80;84.80;;;;;;4966529;28;20206;-74
2024/01/22 09:27:52;;;;;;;1.23;0.70;;;13.70;85.00;;;;;;4971613;28;20490;-74
2024/01/22 09:30:18;;;;;;;0.93;0.53;;;13.70;85.30;;;;;;4965288;28;20272;-74
2024/01/22 09:32:43;;;;;;;2.30;0.60;;;13.70;85.70;;;;;;4985682;28;20224;-74
2024/01/22 09:35:09;;;;;;;1.17;0.80;;;13.70;86.20;;;;;;4969808;28;20642;-74
2024/01/22 09:37:35;;;;;;;1.83;0.40;;;13.70;87.20;;;;;;4968665;28;20180;-74
2024/01/22 09:40:00;;;;;;;2.37;0.80;;;13.60;87.10;;;;;;4983288;28;20650;-74
2024/01/22 09:42:28;;;;;;;1.17;0.80;;;13.70;87.80;;;;;;4969216;28;20221;-74
2024/01/22 09:44:54;;;;;;;2.13;0.87;;;13.70;87.70;;;;;;4968653;28;20356;-74
2024/01/22 09:47:20;;;;;;;1.17;0.70;;;13.70;88.20;;;;;;4969234;28;20535;-74
2024/01/22 09:49:47;;;;;;;2.47;0.80;;;13.70;89.20;;;;;;4967998;28;20374;-74
2024/01/22 09:52:17;;;;;;;1.60;0.80;;;13.70;89.20;;;;;;4970707;28;20707;-74
2024/01/22 09:54:44;;;;;;;0.87;0.67;;;13.70;89.20;;;;;;4983574;28;20218;-74
2024/01/22 09:57:16;;;;;;;2.37;0.93;;;13.60;89.70;;;;;;4969072;28;20428;-74
2024/01/22 09:59:43;;;;;;;2.30;0.83;;;13.60;90.00;;;;;;4968656;28;20177;-74
2024/01/22 10:02:14;;;;;;;2.80;0.90;;;13.70;90.20;;;;;;4959761;28;20734;-74
2024/01/22 10:04:40;;;;;;;1.20;0.90;;;13.70;90.30;;;;;;4966456;28;20186;-74
2024/01/22 10:07:08;;;;;;;1.40;0.80;;;13.70;90.40;;;;;;4967512;28;20434;-74
2024/01/22 10:09:33;;;;;;;3.07;0.83;;;13.70;90.40;;;;;;4965873;28;20515;-74
2024/01/22 10:11:59;;;;;;;1.53;0.73;;;13.70;90.50;;;;;;4965162;28;20185;-74
2024/01/22 10:14:37;;;;;;;1.87;1.00;;;13.70;90.40;;;;;;4967781;28;20282;-74
2024/01/22 10:17:20;;;;;;;2.33;0.87;;;13.70;90.80;;;;;;4968658;28;20183;-74
2024/01/22 10:19:49;;;;;;;0.60;0.60;;;13.70;90.50;;;;;;4966128;28;20226;-74
2024/01/22 10:22:26;;;;;;;1.07;0.80;;;13.70;90.90;;;;;;4981799;28;20746;-74
2024/01/22 10:25:02;;;;;;;1.00;0.90;;;13.70;91.00;;;;;;4983718;28;20196;-74
2024/01/22 10:27:28;;;;;;;2.73;1.00;;;13.80;91.60;;;;;;4967621;28;20175;-74
2024/01/22 10:30:12;;;;;;;0.90;0.60;;;13.90;91.10;;;;;;4968977;28;20218;-74
2024/01/22 10:32:38;;;;;;;1.33;0.83;;;14.00;90.90;;;;;;4964714;28;20185;-74
2024/01/22 10:35:04;;;;;;;1.87;0.90;;;14.10;90.60;;;;;;4968525;28;20204;-74
2024/01/22 10:37:31;;;;;;;1.60;0.80;;;14.20;90.30;;;;;;4969776;28;20253;-74
2024/01/22 10:40:02;;;;;;;2.63;1.00;;;14.30;90.10;;;;;;4951373;28;20622;-74
2024/01/22 10:42:28;;;;;;;1.70;1.10;;;14.40;89.40;;;;;;4969221;28;20182;-74
2024/01/22 10:44:56;;;;;;;2.60;0.90;;;14.50;88.90;;;;;;4950065;28;20181;-74
2024/01/22 10:47:22;;;;;;;1.93;1.00;;;14.60;88.60;;;;;;4969742;28;20181;-75
2024/01/22 10:49:48;;;;;;;1.27;1.03;;;14.60;88.50;;;;;;4963568;28;20239;-74
2024/01/22 10:52:14;;;;;;;1.73;1.00;;;14.60;88.90;;;;;;4966747;28;20176;-74
2024/01/22 10:54:40;;;;;;;2.20;0.90;;;14.60;89.70;;;;;;4966371;28;20309;-75
2024/01/22 10:57:14;;;;;;;1.37;0.87;;;14.50;89.70;;;;;;5045352;28;20769;-74
2024/01/22 10:59:45;;;;;;;2.00;1.00;;;14.50;90.00;;;;;;5074278;28;20429;-74
2024/01/22 11:02:17;;;;;;;1.70;1.00;;;14.50;90.20;;;;;;5075574;28;20238;-74
2024/01/22 11:04:49;;;;;;;2.30;1.10;;;14.40;90.40;;;;;;5071636;28;20183;-74
2024/01/22 11:07:21;;;;;;;2.50;1.10;;;14.40;90.50;;;;;;5067686;28;20237;-74
2024/01/22 11:09:50;;;;;;;4.37;1.10;;;14.40;90.70;;;;;;5067823;28;20206;-74
2024/01/22 11:12:20;;;;;;;1.63;1.07;;;14.40;90.90;;;;;;5068671;28;20182;-74
2024/01/22 11:14:46;;;;;;;3.17;1.00;;;14.40;90.90;;;;;;5067966;28;20187;-74
2024/01/22 11:17:13;;;;;;;3.47;1.00;;;14.30;91.10;;;;;;5067203;28;20193;-74
2024/01/22 11:19:38;;;;;;;2.30;1.00;;;14.30;91.30;;;;;;5067145;28;20443;-74
2024/01/22 11:22:23;;;;;;;2.97;1.37;;;14.30;91.40;;;;;;5067024;28;20570;-74
2024/01/22 11:25:01;;;;;;;5.00;1.30;;;14.30;91.60;;;;;;5067106;28;20182;-74
2024/01/22 11:27:45;;;;;;;1.97;0.90;;;14.20;91.80;;;;;;5069484;28;20457;-74
2024/01/22 11:30:23;;;;;;;1.47;0.97;;;14.30;91.90;;;;;;5069082;28;20286;-74
2024/01/22 11:32:49;;;;;;;2.00;0.97;;;14.20;92.00;;;;;;5068054;28;20177;-74
2024/01/22 11:35:38;;;;;;;1.30;0.80;;;14.20;92.00;;;;;;5065601;28;20529;-74
2024/01/22 11:38:13;;;;;;;1.67;0.93;;;14.20;92.10;;;;;;5065376;28;20190;-74
2024/01/22 11:40:54;;;;;;;2.40;1.10;;;14.20;92.20;;;;;;5064117;28;20238;-74
2024/01/22 11:43:23;;;;;;;2.47;1.00;;;14.20;92.30;;;;;;5066388;28;20438;-74
2024/01/22 11:45:56;;;;;;;1.73;1.00;;;14.20;92.60;;;;;;5062652;28;20181;-74
2024/01/22 11:48:23;;;;;;;1.60;0.90;;;14.20;92.80;;;;;;5064896;28;20345;-74
2024/01/22 11:51:04;;;;;;;2.93;1.13;;;14.20;92.90;;;;;;5063918;28;20663;-74
2024/01/22 11:53:31;;;;;;;1.47;0.90;;;14.10;93.00;;;;;;5062316;28;20174;-74
2024/01/22 11:56:01;;;;;;;2.20;1.20;;;14.20;92.90;;;;;;5065466;28;20182;-75
2024/01/22 11:58:31;;;;;;;3.33;1.30;;;14.20;92.90;;;;;;5065252;28;20177;-76
2024/01/22 12:01:03;;;;;;;4.27;1.13;;;14.50;98.10;;;;;;5081574;28;20175;-78
2024/01/22 12:03:29;;;;;;;2.57;1.10;;;15.00;98.50;;;;;;5063652;28;20422;-74
2024/01/22 12:06:08;;;;;;;3.73;1.40;;;15.20;97.50;;;;;;5065108;28;20180;-74
2024/01/22 12:08:35;;;;;;;4.23;1.10;;;15.10;96.90;;;;;;5065533;28;20178;-75
2024/01/22 12:11:13;;;;;;;2.77;1.23;;;14.90;96.80;;;;;;5013774;28;20604;-74
2024/01/22 12:13:43;;;;;;;4.07;1.20;;;14.80;96.50;;;;;;4987255;28;20274;-74
2024/01/22 12:16:13;;;;;;;4.13;1.23;;;14.70;96.40;;;;;;4985530;28;20180;-74
2024/01/22 12:18:39;;;;;;;3.73;1.10;;;14.60;96.30;;;;;;4984821;28;20180;-74
2024/01/22 12:21:05;;;;;;;2.53;1.27;;;14.50;96.20;;;;;;4985862;28;20602;-74
2024/01/22 12:23:32;;;;;;;2.70;1.20;;;14.50;96.30;;;;;;4989188;28;20277;-80
2024/01/22 12:25:59;;;;;;;1.90;1.13;;;14.40;96.20;;;;;;4990861;28;20196;-79
2024/01/22 12:28:28;;;;;;;2.77;1.20;;;14.40;96.30;;;;;;4991802;28;20328;-80
2024/01/22 12:31:02;;;;;;;2.47;1.10;;;14.40;96.30;;;;;;4988965;28;20227;-82
2024/01/22 12:33:33;;;;;;;1.90;1.00;;;14.40;96.20;;;;;;4985480;28;20180;-80
2024/01/22 12:36:13;;;;;;;2.80;1.10;;;14.40;96.10;;;;;;4953384;28;20418;-80
2024/01/22 12:39:44;;;;;;;2.40;1.37;;;14.40;96.10;;;;;;4985394;28;20332;-79
2024/01/22 12:42:20;;;;;;;2.30;1.20;;;14.40;96.00;;;;;;4975850;28;20196;-77
2024/01/22 12:44:59;;;;;;;3.00;1.30;;;14.40;95.80;;;;;;4985853;28;20251;-77
2024/01/22 12:47:25;;;;;;;2.90;1.10;;;14.40;95.90;;;;;;4986828;28;20173;-77
2024/01/22 12:49:52;;;;;;;2.33;1.20;;;14.40;95.80;;;;;;4988987;28;20605;-76